sensor_id;sensor_type;location;lat;lon;timestamp;temperature;humidity
29731;DHT22;16639;51.488;0.152;2022-10-16T00:02:10;12.80;99.90
29731;DHT22;16639;51.488;0.152;2022-10-16T00:04:38;12.80;99.90
29731;DHT22;16639;51.488;0.152;2022-10-16T00:07:05;12.80;99.90
29731;DHT22;16639;51.488;0.152;2022-10-16T00:09:32;12.70;99.90
29731;DHT22;16639;51.488;0.152;2022-10-16T00:12:02;12.70;99.90
29731;DHT22;16639;51.488;0.152;2022-10-16T00:14:31;12.70;99.90
29731;DHT22;16639;51.488;0.152;2022-10-16T00:16:58;13.40;99.90
29731;DHT22;16639;51.488;0.152;2022-10-16T00:19:25;12.70;99.90
29731;DHT22;16639;51.488;0.152;2022-10-16T00:21:52;12.60;99.90
29731;DHT22;16639;51.488;0.152;2022-10-16T00:24:19;12.70;99.90
29731;DHT22;16639;51.488;0.152;2022-10-16T00:26:46;12.70;99.90
29731;DHT22;16639;51.488;0.152;2022-10-16T00:29:16;12.60;99.90
29731;DHT22;16639;51.488;0.152;2022-10-16T00:31:43;12.50;99.90
29731;DHT22;16639;51.488;0.152;2022-10-16T00:34:10;12.50;99.90
29731;DHT22;16639;51.488;0.152;2022-10-16T00:36:37;12.60;99.90
29731;DHT22;16639;51.488;0.152;2022-10-16T00:39:05;12.60;99.90
29731;DHT22;16639;51.488;0.152;2022-10-16T00:41:32;12.60;99.90
29731;DHT22;16639;51.488;0.152;2022-10-16T00:44:01;12.50;99.90
29731;DHT22;16639;51.488;0.152;2022-10-16T00:46:37;12.50;99.90
29731;DHT22;16639;51.488;0.152;2022-10-16T00:49:09;12.50;99.90
29731;DHT22;16639;51.488;0.152;2022-10-16T00:51:46;12.40;99.90
29731;DHT22;16639;51.488;0.152;2022-10-16T00:54:21;12.30;99.90
29731;DHT22;16639;51.488;0.152;2022-10-16T00:56:49;12.40;99.90
29731;DHT22;16639;51.488;0.152;2022-10-16T00:59:24;12.40;99.90
29731;DHT22;16639;51.488;0.152;2022-10-16T01:01:52;12.50;99.90
29731;DHT22;16639;51.488;0.152;2022-10-16T01:04:19;12.40;99.90
29731;DHT22;16639;51.488;0.152;2022-10-16T01:14:56;12.40;99.90
29731;DHT22;16639;51.488;0.152;2022-10-16T01:17:49;12.40;99.90
29731;DHT22;16639;51.488;0.152;2022-10-16T01:20:17;13.50;99.90
29731;DHT22;16639;51.488;0.152;2022-10-16T01:25:31;12.40;99.90
29731;DHT22;16639;51.488;0.152;2022-10-16T01:28:03;12.40;99.90
29731;DHT22;16639;51.488;0.152;2022-10-16T01:30:32;12.50;99.90
29731;DHT22;16639;51.488;0.152;2022-10-16T01:35:29;13.60;99.90
29731;DHT22;16639;51.488;0.152;2022-10-16T01:38:02;12.50;99.90
29731;DHT22;16639;51.488;0.152;2022-10-16T01:40:30;12.50;99.90
29731;DHT22;16639;51.488;0.152;2022-10-16T01:43:03;12.50;99.90
29731;DHT22;16639;51.488;0.152;2022-10-16T01:45:32;12.50;99.90
29731;DHT22;16639;51.488;0.152;2022-10-16T01:48:00;12.50;99.90
29731;DHT22;16639;51.488;0.152;2022-10-16T01:50:31;12.50;99.90
29731;DHT22;16639;51.488;0.152;2022-10-16T01:53:00;12.50;99.90
29731;DHT22;16639;51.488;0.152;2022-10-16T01:55:29;12.50;99.90
29731;DHT22;16639;51.488;0.152;2022-10-16T01:57:57;12.60;99.90
29731;DHT22;16639;51.488;0.152;2022-10-16T02:00:27;12.60;99.90
29731;DHT22;16639;51.488;0.152;2022-10-16T02:02:54;12.60;99.90
29731;DHT22;16639;51.488;0.152;2022-10-16T02:05:24;12.60;99.90
29731;DHT22;16639;51.488;0.152;2022-10-16T02:07:52;12.70;99.90
29731;DHT22;16639;51.488;0.152;2022-10-16T02:10:20;12.70;99.90
29731;DHT22;16639;51.488;0.152;2022-10-16T02:12:49;12.90;99.90
29731;DHT22;16639;51.488;0.152;2022-10-16T02:15:17;12.80;99.90
29731;DHT22;16639;51.488;0.152;2022-10-16T02:17:45;12.80;99.90
29731;DHT22;16639;51.488;0.152;2022-10-16T02:20:12;12.80;99.90
29731;DHT22;16639;51.488;0.152;2022-10-16T02:22:40;12.90;99.90
29731;DHT22;16639;51.488;0.152;2022-10-16T02:25:14;12.90;99.90
29731;DHT22;16639;51.488;0.152;2022-10-16T02:30:21;12.90;99.90
29731;DHT22;16639;51.488;0.152;2022-10-16T02:32:49;12.90;99.90
29731;DHT22;16639;51.488;0.152;2022-10-16T02:35:17;12.80;99.90
29731;DHT22;16639;51.488;0.152;2022-10-16T02:37:46;12.70;99.90
29731;DHT22;16639;51.488;0.152;2022-10-16T02:40:13;12.80;99.90
29731;DHT22;16639;51.488;0.152;2022-10-16T02:42:41;12.70;99.90
29731;DHT22;16639;51.488;0.152;2022-10-16T02:45:09;13.40;99.90
29731;DHT22;16639;51.488;0.152;2022-10-16T02:47:36;12.60;99.90
29731;DHT22;16639;51.488;0.152;2022-10-16T02:50:04;12.60;99.90
29731;DHT22;16639;51.488;0.152;2022-10-16T02:52:31;12.60;99.90
29731;DHT22;16639;51.488;0.152;2022-10-16T02:54:58;12.60;99.90
29731;DHT22;16639;51.488;0.152;2022-10-16T02:57:25;12.60;99.90
29731;DHT22;16639;51.488;0.152;2022-10-16T02:59:53;12.60;99.90
29731;DHT22;16639;51.488;0.152;2022-10-16T03:02:20;12.50;99.90
29731;DHT22;16639;51.488;0.152;2022-10-16T03:04:47;12.50;99.90
29731;DHT22;16639;51.488;0.152;2022-10-16T03:07:14;12.40;99.90
29731;DHT22;16639;51.488;0.152;2022-10-16T03:09:41;12.50;99.90
29731;DHT22;16639;51.488;0.152;2022-10-16T03:12:09;12.50;99.90
29731;DHT22;16639;51.488;0.152;2022-10-16T03:14:36;12.60;99.90
29731;DHT22;16639;51.488;0.152;2022-10-16T03:17:03;12.50;99.90
29731;DHT22;16639;51.488;0.152;2022-10-16T03:19:30;12.40;99.90
29731;DHT22;16639;51.488;0.152;2022-10-16T03:21:57;12.40;99.90
29731;DHT22;16639;51.488;0.152;2022-10-16T03:24:24;12.40;99.90
29731;DHT22;16639;51.488;0.152;2022-10-16T03:26:51;12.40;99.90
29731;DHT22;16639;51.488;0.152;2022-10-16T03:29:18;12.30;99.90
29731;DHT22;16639;51.488;0.152;2022-10-16T03:31:45;12.30;99.90
29731;DHT22;16639;51.488;0.152;2022-10-16T03:34:12;12.30;99.90
29731;DHT22;16639;51.488;0.152;2022-10-16T03:36:39;12.40;99.90
29731;DHT22;16639;51.488;0.152;2022-10-16T03:39:06;12.30;99.90
29731;DHT22;16639;51.488;0.152;2022-10-16T03:41:34;12.30;99.90
29731;DHT22;16639;51.488;0.152;2022-10-16T03:44:01;12.20;99.90
29731;DHT22;16639;51.488;0.152;2022-10-16T03:46:28;11.40;99.90
29731;DHT22;16639;51.488;0.152;2022-10-16T03:48:56;12.20;99.90
29731;DHT22;16639;51.488;0.152;2022-10-16T03:51:23;12.20;99.90
29731;DHT22;16639;51.488;0.152;2022-10-16T03:53:50;12.10;99.90
29731;DHT22;16639;51.488;0.152;2022-10-16T03:56:17;12.10;99.90
29731;DHT22;16639;51.488;0.152;2022-10-16T03:58:44;12.10;99.90
29731;DHT22;16639;51.488;0.152;2022-10-16T04:01:11;12.10;99.90
29731;DHT22;16639;51.488;0.152;2022-10-16T04:03:38;12.10;99.90
29731;DHT22;16639;51.488;0.152;2022-10-16T04:06:05;12.10;99.90
29731;DHT22;16639;51.488;0.152;2022-10-16T04:08:32;12.10;99.90
29731;DHT22;16639;51.488;0.152;2022-10-16T04:11:02;12.10;99.90
29731;DHT22;16639;51.488;0.152;2022-10-16T04:13:29;12.10;99.90
29731;DHT22;16639;51.488;0.152;2022-10-16T04:15:57;12.10;99.90
29731;DHT22;16639;51.488;0.152;2022-10-16T04:18:24;12.10;99.90
29731;DHT22;16639;51.488;0.152;2022-10-16T04:20:53;11.40;99.90
29731;DHT22;16639;51.488;0.152;2022-10-16T04:23:21;12.10;99.90
29731;DHT22;16639;51.488;0.152;2022-10-16T04:25:50;11.40;99.90
29731;DHT22;16639;51.488;0.152;2022-10-16T04:28:17;12.70;99.90
29731;DHT22;16639;51.488;0.152;2022-10-16T04:30:44;13.50;99.90
29731;DHT22;16639;51.488;0.152;2022-10-16T04:33:11;12.10;99.90
29731;DHT22;16639;51.488;0.152;2022-10-16T04:35:39;11.60;99.90
29731;DHT22;16639;51.488;0.152;2022-10-16T04:38:06;12.10;99.90
29731;DHT22;16639;51.488;0.152;2022-10-16T04:40:33;12.10;99.90
29731;DHT22;16639;51.488;0.152;2022-10-16T04:43:03;12.10;99.90
29731;DHT22;16639;51.488;0.152;2022-10-16T04:45:30;11.40;99.90
29731;DHT22;16639;51.488;0.152;2022-10-16T04:47:58;12.10;99.90
29731;DHT22;16639;51.488;0.152;2022-10-16T04:50:25;12.10;99.90
29731;DHT22;16639;51.488;0.152;2022-10-16T04:52:52;12.60;99.90
29731;DHT22;16639;51.488;0.152;2022-10-16T04:55:19;12.10;99.90
29731;DHT22;16639;51.488;0.152;2022-10-16T04:57:47;12.00;99.90
29731;DHT22;16639;51.488;0.152;2022-10-16T05:00:14;12.00;99.90
29731;DHT22;16639;51.488;0.152;2022-10-16T05:02:41;12.00;99.90
29731;DHT22;16639;51.488;0.152;2022-10-16T05:05:08;12.00;99.90
29731;DHT22;16639;51.488;0.152;2022-10-16T05:07:35;12.00;99.90
29731;DHT22;16639;51.488;0.152;2022-10-16T05:10:02;12.00;99.90
29731;DHT22;16639;51.488;0.152;2022-10-16T05:12:30;12.00;99.90
29731;DHT22;16639;51.488;0.152;2022-10-16T05:14:57;12.00;99.90
29731;DHT22;16639;51.488;0.152;2022-10-16T05:17:26;12.00;99.90
29731;DHT22;16639;51.488;0.152;2022-10-16T05:19:53;12.00;99.90
29731;DHT22;16639;51.488;0.152;2022-10-16T05:22:21;12.00;99.90
29731;DHT22;16639;51.488;0.152;2022-10-16T05:24:48;12.00;99.90
29731;DHT22;16639;51.488;0.152;2022-10-16T05:27:15;12.00;99.90
29731;DHT22;16639;51.488;0.152;2022-10-16T05:29:46;12.00;99.90
29731;DHT22;16639;51.488;0.152;2022-10-16T05:32:14;12.00;99.90
29731;DHT22;16639;51.488;0.152;2022-10-16T05:34:42;11.90;99.90
29731;DHT22;16639;51.488;0.152;2022-10-16T05:37:09;11.90;99.90
29731;DHT22;16639;51.488;0.152;2022-10-16T05:39:37;12.10;99.90
29731;DHT22;16639;51.488;0.152;2022-10-16T05:42:04;12.00;99.90
29731;DHT22;16639;51.488;0.152;2022-10-16T05:44:31;12.00;99.90
29731;DHT22;16639;51.488;0.152;2022-10-16T05:46:59;12.00;99.90
29731;DHT22;16639;51.488;0.152;2022-10-16T05:49:26;12.00;99.90
29731;DHT22;16639;51.488;0.152;2022-10-16T05:51:53;12.00;99.90
29731;DHT22;16639;51.488;0.152;2022-10-16T05:54:21;12.00;99.90
29731;DHT22;16639;51.488;0.152;2022-10-16T05:56:48;12.00;99.90
29731;DHT22;16639;51.488;0.152;2022-10-16T05:59:15;12.00;99.90
29731;DHT22;16639;51.488;0.152;2022-10-16T06:01:43;12.10;99.90
29731;DHT22;16639;51.488;0.152;2022-10-16T06:04:10;12.00;99.90
29731;DHT22;16639;51.488;0.152;2022-10-16T06:06:42;12.90;99.90
29731;DHT22;16639;51.488;0.152;2022-10-16T06:09:09;11.90;99.90
29731;DHT22;16639;51.488;0.152;2022-10-16T06:11:36;13.10;99.90
29731;DHT22;16639;51.488;0.152;2022-10-16T06:14:03;12.00;99.90
29731;DHT22;16639;51.488;0.152;2022-10-16T06:16:34;11.90;99.90
29731;DHT22;16639;51.488;0.152;2022-10-16T06:19:02;11.90;99.90
29731;DHT22;16639;51.488;0.152;2022-10-16T06:21:31;11.90;99.90
29731;DHT22;16639;51.488;0.152;2022-10-16T06:23:58;11.90;99.90
29731;DHT22;16639;51.488;0.152;2022-10-16T06:26:27;11.90;99.90
29731;DHT22;16639;51.488;0.152;2022-10-16T06:28:55;11.90;99.90
29731;DHT22;16639;51.488;0.152;2022-10-16T06:31:22;11.80;99.90
29731;DHT22;16639;51.488;0.152;2022-10-16T06:33:54;11.90;99.90
29731;DHT22;16639;51.488;0.152;2022-10-16T06:36:21;11.90;99.90
29731;DHT22;16639;51.488;0.152;2022-10-16T06:38:49;11.90;99.90
29731;DHT22;16639;51.488;0.152;2022-10-16T06:41:20;11.80;99.90
29731;DHT22;16639;51.488;0.152;2022-10-16T06:43:48;11.80;99.90
29731;DHT22;16639;51.488;0.152;2022-10-16T06:46:16;11.80;99.90
29731;DHT22;16639;51.488;0.152;2022-10-16T06:48:43;11.80;99.90
29731;DHT22;16639;51.488;0.152;2022-10-16T06:51:12;11.80;99.90
29731;DHT22;16639;51.488;0.152;2022-10-16T06:53:40;11.80;99.90
29731;DHT22;16639;51.488;0.152;2022-10-16T06:56:28;11.70;99.90
29731;DHT22;16639;51.488;0.152;2022-10-16T06:58:56;11.80;99.90
29731;DHT22;16639;51.488;0.152;2022-10-16T07:01:24;11.80;99.90
29731;DHT22;16639;51.488;0.152;2022-10-16T07:03:51;11.70;99.90
29731;DHT22;16639;51.488;0.152;2022-10-16T07:06:20;11.70;99.90
29731;DHT22;16639;51.488;0.152;2022-10-16T07:08:47;11.70;99.90
29731;DHT22;16639;51.488;0.152;2022-10-16T07:11:15;11.70;99.90
29731;DHT22;16639;51.488;0.152;2022-10-16T07:13:43;10.90;99.90
29731;DHT22;16639;51.488;0.152;2022-10-16T07:16:12;11.70;99.90
29731;DHT22;16639;51.488;0.152;2022-10-16T07:18:39;11.60;99.90
29731;DHT22;16639;51.488;0.152;2022-10-16T07:21:08;11.70;99.90
29731;DHT22;16639;51.488;0.152;2022-10-16T07:23:35;11.60;99.90
29731;DHT22;16639;51.488;0.152;2022-10-16T07:26:03;11.60;99.90
29731;DHT22;16639;51.488;0.152;2022-10-16T07:28:30;11.70;99.90
29731;DHT22;16639;51.488;0.152;2022-10-16T07:31:06;11.60;99.90
29731;DHT22;16639;51.488;0.152;2022-10-16T07:33:34;11.70;99.90
29731;DHT22;16639;51.488;0.152;2022-10-16T07:36:01;11.70;99.90
29731;DHT22;16639;51.488;0.152;2022-10-16T07:38:29;11.70;99.90
29731;DHT22;16639;51.488;0.152;2022-10-16T07:40:59;11.80;99.90
29731;DHT22;16639;51.488;0.152;2022-10-16T07:43:27;13.30;99.90
29731;DHT22;16639;51.488;0.152;2022-10-16T07:45:54;11.60;99.90
29731;DHT22;16639;51.488;0.152;2022-10-16T07:48:26;11.80;99.90
29731;DHT22;16639;51.488;0.152;2022-10-16T07:50:57;11.40;99.90
29731;DHT22;16639;51.488;0.152;2022-10-16T07:53:25;11.90;99.90
29731;DHT22;16639;51.488;0.152;2022-10-16T07:55:57;11.90;99.90
29731;DHT22;16639;51.488;0.152;2022-10-16T07:58:25;11.90;99.90
29731;DHT22;16639;51.488;0.152;2022-10-16T08:00:52;11.90;99.90
29731;DHT22;16639;51.488;0.152;2022-10-16T08:03:20;11.90;99.90
29731;DHT22;16639;51.488;0.152;2022-10-16T08:05:47;11.90;99.90
29731;DHT22;16639;51.488;0.152;2022-10-16T08:08:14;11.80;99.90
29731;DHT22;16639;51.488;0.152;2022-10-16T08:10:42;11.90;99.90
29731;DHT22;16639;51.488;0.152;2022-10-16T08:13:09;12.00;99.90
29731;DHT22;16639;51.488;0.152;2022-10-16T08:15:36;12.00;99.90
29731;DHT22;16639;51.488;0.152;2022-10-16T08:18:04;11.90;99.90
29731;DHT22;16639;51.488;0.152;2022-10-16T08:20:32;11.90;99.90
29731;DHT22;16639;51.488;0.152;2022-10-16T08:22:59;11.90;99.90
29731;DHT22;16639;51.488;0.152;2022-10-16T08:25:27;12.00;99.90
29731;DHT22;16639;51.488;0.152;2022-10-16T08:27:54;12.00;99.90
29731;DHT22;16639;51.488;0.152;2022-10-16T08:30:22;12.00;99.90
29731;DHT22;16639;51.488;0.152;2022-10-16T08:32:49;12.10;99.90
29731;DHT22;16639;51.488;0.152;2022-10-16T08:35:16;12.00;99.90
29731;DHT22;16639;51.488;0.152;2022-10-16T08:37:43;12.10;99.90
29731;DHT22;16639;51.488;0.152;2022-10-16T08:40:20;12.00;99.90
29731;DHT22;16639;51.488;0.152;2022-10-16T08:48:43;12.20;99.90
29731;DHT22;16639;51.488;0.152;2022-10-16T08:51:12;12.20;99.90
29731;DHT22;16639;51.488;0.152;2022-10-16T08:56:13;12.30;99.90
29731;DHT22;16639;51.488;0.152;2022-10-16T08:58:40;12.20;99.90
29731;DHT22;16639;51.488;0.152;2022-10-16T09:01:12;12.20;99.90
29731;DHT22;16639;51.488;0.152;2022-10-16T09:16:48;12.40;99.90
29731;DHT22;16639;51.488;0.152;2022-10-16T09:21:46;12.40;99.90
29731;DHT22;16639;51.488;0.152;2022-10-16T09:24:15;12.50;99.90
29731;DHT22;16639;51.488;0.152;2022-10-16T09:26:43;12.50;99.90
29731;DHT22;16639;51.488;0.152;2022-10-16T09:29:11;12.50;99.90
29731;DHT22;16639;51.488;0.152;2022-10-16T09:31:39;12.60;99.90
29731;DHT22;16639;51.488;0.152;2022-10-16T09:34:06;12.60;99.90
29731;DHT22;16639;51.488;0.152;2022-10-16T09:36:42;13.20;99.90
29731;DHT22;16639;51.488;0.152;2022-10-16T09:39:10;12.70;99.90
29731;DHT22;16639;51.488;0.152;2022-10-16T09:41:39;12.20;99.90
29731;DHT22;16639;51.488;0.152;2022-10-16T09:44:41;12.80;99.90
29731;DHT22;16639;51.488;0.152;2022-10-16T09:47:01;12.80;99.90
29731;DHT22;16639;51.488;0.152;2022-10-16T09:49:28;12.80;99.90
29731;DHT22;16639;51.488;0.152;2022-10-16T09:52:14;12.80;99.90
29731;DHT22;16639;51.488;0.152;2022-10-16T09:57:20;12.90;99.90
29731;DHT22;16639;51.488;0.152;2022-10-16T09:59:48;13.00;99.90
29731;DHT22;16639;51.488;0.152;2022-10-16T10:02:16;12.90;99.90
29731;DHT22;16639;51.488;0.152;2022-10-16T10:04:49;13.00;99.90
29731;DHT22;16639;51.488;0.152;2022-10-16T10:07:23;13.00;99.90
29731;DHT22;16639;51.488;0.152;2022-10-16T10:09:51;13.00;99.90
29731;DHT22;16639;51.488;0.152;2022-10-16T10:14:50;13.00;99.90
29731;DHT22;16639;51.488;0.152;2022-10-16T10:22:23;13.10;99.90
29731;DHT22;16639;51.488;0.152;2022-10-16T10:25:12;13.10;99.90
29731;DHT22;16639;51.488;0.152;2022-10-16T10:32:41;13.10;99.90
29731;DHT22;16639;51.488;0.152;2022-10-16T10:37:46;13.30;99.90
29731;DHT22;16639;51.488;0.152;2022-10-16T10:40:34;13.30;99.90
29731;DHT22;16639;51.488;0.152;2022-10-16T10:45:52;13.40;99.90
29731;DHT22;16639;51.488;0.152;2022-10-16T10:48:24;13.50;99.90
29731;DHT22;16639;51.488;0.152;2022-10-16T10:51:01;13.60;99.90
29731;DHT22;16639;51.488;0.152;2022-10-16T10:53:36;13.70;99.90
29731;DHT22;16639;51.488;0.152;2022-10-16T10:58:40;13.80;99.90
29731;DHT22;16639;51.488;0.152;2022-10-16T11:06:48;14.70;99.90
29731;DHT22;16639;51.488;0.152;2022-10-16T11:11:48;14.20;99.90
29731;DHT22;16639;51.488;0.152;2022-10-16T11:14:20;14.30;99.90
29731;DHT22;16639;51.488;0.152;2022-10-16T11:16:49;14.30;99.90
29731;DHT22;16639;51.488;0.152;2022-10-16T11:22:11;14.40;99.90
29731;DHT22;16639;51.488;0.152;2022-10-16T11:24:42;14.50;99.90
29731;DHT22;16639;51.488;0.152;2022-10-16T11:27:15;14.50;99.90
29731;DHT22;16639;51.488;0.152;2022-10-16T11:29:45;14.60;99.90
29731;DHT22;16639;51.488;0.152;2022-10-16T11:32:19;14.60;99.90
29731;DHT22;16639;51.488;0.152;2022-10-16T11:34:50;14.70;99.90
29731;DHT22;16639;51.488;0.152;2022-10-16T11:37:19;15.70;99.90
29731;DHT22;16639;51.488;0.152;2022-10-16T11:39:48;14.90;99.90
29731;DHT22;16639;51.488;0.152;2022-10-16T11:42:18;15.00;99.90
29731;DHT22;16639;51.488;0.152;2022-10-16T11:45:08;15.00;99.90
29731;DHT22;16639;51.488;0.152;2022-10-16T11:47:42;15.00;99.90
29731;DHT22;16639;51.488;0.152;2022-10-16T11:50:31;15.00;99.90
29731;DHT22;16639;51.488;0.152;2022-10-16T11:55:37;15.00;99.90
29731;DHT22;16639;51.488;0.152;2022-10-16T12:08:38;15.10;99.90
29731;DHT22;16639;51.488;0.152;2022-10-16T12:11:09;15.10;99.90
29731;DHT22;16639;51.488;0.152;2022-10-16T12:13:46;15.20;99.90
29731;DHT22;16639;51.488;0.152;2022-10-16T12:18:43;15.30;99.90
29731;DHT22;16639;51.488;0.152;2022-10-16T12:21:11;15.40;99.90
29731;DHT22;16639;51.488;0.152;2022-10-16T12:23:50;15.40;99.90
29731;DHT22;16639;51.488;0.152;2022-10-16T12:26:24;15.40;99.90
29731;DHT22;16639;51.488;0.152;2022-10-16T12:28:52;15.40;99.90
29731;DHT22;16639;51.488;0.152;2022-10-16T12:31:20;15.40;99.90
29731;DHT22;16639;51.488;0.152;2022-10-16T12:33:57;15.60;99.90
29731;DHT22;16639;51.488;0.152;2022-10-16T12:36:26;15.50;99.90
29731;DHT22;16639;51.488;0.152;2022-10-16T12:38:54;15.60;99.90
29731;DHT22;16639;51.488;0.152;2022-10-16T12:41:29;15.40;99.90
29731;DHT22;16639;51.488;0.152;2022-10-16T12:43:56;15.50;99.90
29731;DHT22;16639;51.488;0.152;2022-10-16T12:51:43;15.40;99.90
29731;DHT22;16639;51.488;0.152;2022-10-16T12:54:14;16.30;99.90
29731;DHT22;16639;51.488;0.152;2022-10-16T12:59:19;15.40;99.90
29731;DHT22;16639;51.488;0.152;2022-10-16T13:04:42;15.30;99.90
29731;DHT22;16639;51.488;0.152;2022-10-16T13:09:41;15.40;99.90
29731;DHT22;16639;51.488;0.152;2022-10-16T13:20:20;15.50;99.90
29731;DHT22;16639;51.488;0.152;2022-10-16T13:28:11;15.60;99.90
29731;DHT22;16639;51.488;0.152;2022-10-16T13:30:40;16.00;99.90
29731;DHT22;16639;51.488;0.152;2022-10-16T13:33:19;15.60;99.90
29731;DHT22;16639;51.488;0.152;2022-10-16T13:35:48;15.60;99.90
29731;DHT22;16639;51.488;0.152;2022-10-16T13:38:17;15.60;99.90
29731;DHT22;16639;51.488;0.152;2022-10-16T13:40:48;15.60;99.90
29731;DHT22;16639;51.488;0.152;2022-10-16T13:43:16;15.60;99.90
29731;DHT22;16639;51.488;0.152;2022-10-16T13:45:57;15.60;99.90
29731;DHT22;16639;51.488;0.152;2022-10-16T13:48:25;15.60;99.90
29731;DHT22;16639;51.488;0.152;2022-10-16T13:51:26;15.60;99.90
29731;DHT22;16639;51.488;0.152;2022-10-16T13:53:45;15.60;99.90
29731;DHT22;16639;51.488;0.152;2022-10-16T13:56:14;15.60;99.90
29731;DHT22;16639;51.488;0.152;2022-10-16T13:58:42;15.70;99.90
29731;DHT22;16639;51.488;0.152;2022-10-16T14:01:19;15.70;99.90
29731;DHT22;16639;51.488;0.152;2022-10-16T14:03:47;15.70;99.90
29731;DHT22;16639;51.488;0.152;2022-10-16T14:06:16;15.60;99.90
29731;DHT22;16639;51.488;0.152;2022-10-16T14:08:45;15.70;99.90
29731;DHT22;16639;51.488;0.152;2022-10-16T14:11:20;15.70;99.90
29731;DHT22;16639;51.488;0.152;2022-10-16T14:13:47;15.70;99.90
29731;DHT22;16639;51.488;0.152;2022-10-16T14:16:16;15.70;99.90
29731;DHT22;16639;51.488;0.152;2022-10-16T14:18:45;15.70;99.90
29731;DHT22;16639;51.488;0.152;2022-10-16T14:21:13;15.60;99.90
29731;DHT22;16639;51.488;0.152;2022-10-16T14:23:41;15.70;99.90
29731;DHT22;16639;51.488;0.152;2022-10-16T14:28:36;15.70;99.90
29731;DHT22;16639;51.488;0.152;2022-10-16T14:31:19;15.70;99.90
29731;DHT22;16639;51.488;0.152;2022-10-16T14:33:49;15.60;99.90
29731;DHT22;16639;51.488;0.152;2022-10-16T14:36:16;15.70;99.90
29731;DHT22;16639;51.488;0.152;2022-10-16T14:39:03;15.60;99.90
29731;DHT22;16639;51.488;0.152;2022-10-16T14:41:31;15.60;99.90
29731;DHT22;16639;51.488;0.152;2022-10-16T14:44:03;15.50;99.90
29731;DHT22;16639;51.488;0.152;2022-10-16T14:46:34;15.60;99.90
29731;DHT22;16639;51.488;0.152;2022-10-16T14:49:03;15.60;99.90
29731;DHT22;16639;51.488;0.152;2022-10-16T14:51:31;15.60;99.90
29731;DHT22;16639;51.488;0.152;2022-10-16T14:53:58;15.60;99.90
29731;DHT22;16639;51.488;0.152;2022-10-16T14:56:29;15.60;99.90
29731;DHT22;16639;51.488;0.152;2022-10-16T14:58:59;15.60;99.90
29731;DHT22;16639;51.488;0.152;2022-10-16T15:01:27;16.80;99.90
29731;DHT22;16639;51.488;0.152;2022-10-16T15:03:54;15.60;99.90
29731;DHT22;16639;51.488;0.152;2022-10-16T15:06:22;15.50;99.90
29731;DHT22;16639;51.488;0.152;2022-10-16T15:08:49;15.50;99.90
29731;DHT22;16639;51.488;0.152;2022-10-16T15:11:17;15.50;99.90
29731;DHT22;16639;51.488;0.152;2022-10-16T15:13:44;15.50;99.90
29731;DHT22;16639;51.488;0.152;2022-10-16T15:16:13;15.50;99.90
29731;DHT22;16639;51.488;0.152;2022-10-16T15:18:40;15.50;99.90
29731;DHT22;16639;51.488;0.152;2022-10-16T15:21:07;15.50;99.90
29731;DHT22;16639;51.488;0.152;2022-10-16T15:23:35;15.50;99.90
29731;DHT22;16639;51.488;0.152;2022-10-16T15:26:02;15.50;99.90
29731;DHT22;16639;51.488;0.152;2022-10-16T15:28:29;15.40;99.90
29731;DHT22;16639;51.488;0.152;2022-10-16T15:30:57;15.40;99.90
29731;DHT22;16639;51.488;0.152;2022-10-16T15:33:25;15.40;99.90
29731;DHT22;16639;51.488;0.152;2022-10-16T15:36:05;15.30;99.90
29731;DHT22;16639;51.488;0.152;2022-10-16T15:38:33;15.30;99.90
29731;DHT22;16639;51.488;0.152;2022-10-16T15:41:00;15.20;99.90
29731;DHT22;16639;51.488;0.152;2022-10-16T15:43:27;15.20;99.90
29731;DHT22;16639;51.488;0.152;2022-10-16T15:46:02;15.20;99.90
29731;DHT22;16639;51.488;0.152;2022-10-16T15:48:30;15.40;99.90
29731;DHT22;16639;51.488;0.152;2022-10-16T15:50:57;15.20;99.90
29731;DHT22;16639;51.488;0.152;2022-10-16T15:53:24;15.20;99.90
29731;DHT22;16639;51.488;0.152;2022-10-16T15:55:51;15.50;99.90
29731;DHT22;16639;51.488;0.152;2022-10-16T15:58:18;15.20;99.90
29731;DHT22;16639;51.488;0.152;2022-10-16T16:00:53;15.20;99.90
29731;DHT22;16639;51.488;0.152;2022-10-16T16:03:20;15.20;99.90
29731;DHT22;16639;51.488;0.152;2022-10-16T16:05:47;15.10;99.90
29731;DHT22;16639;51.488;0.152;2022-10-16T16:08:14;15.10;99.90
29731;DHT22;16639;51.488;0.152;2022-10-16T16:10:41;15.10;99.90
29731;DHT22;16639;51.488;0.152;2022-10-16T16:13:09;15.10;99.90
29731;DHT22;16639;51.488;0.152;2022-10-16T16:15:38;15.10;99.90
29731;DHT22;16639;51.488;0.152;2022-10-16T16:18:05;15.10;99.90
29731;DHT22;16639;51.488;0.152;2022-10-16T16:20:32;15.10;99.90
29731;DHT22;16639;51.488;0.152;2022-10-16T16:22:59;15.00;99.90
29731;DHT22;16639;51.488;0.152;2022-10-16T16:25:26;15.00;99.90
29731;DHT22;16639;51.488;0.152;2022-10-16T16:27:53;15.00;99.90
29731;DHT22;16639;51.488;0.152;2022-10-16T16:30:21;15.00;99.90
29731;DHT22;16639;51.488;0.152;2022-10-16T16:32:53;15.00;99.90
29731;DHT22;16639;51.488;0.152;2022-10-16T16:35:20;15.00;99.90
29731;DHT22;16639;51.488;0.152;2022-10-16T16:37:47;15.00;99.90
29731;DHT22;16639;51.488;0.152;2022-10-16T16:40:15;15.00;99.90
29731;DHT22;16639;51.488;0.152;2022-10-16T16:42:42;15.00;99.90
29731;DHT22;16639;51.488;0.152;2022-10-16T16:45:09;14.90;99.90
29731;DHT22;16639;51.488;0.152;2022-10-16T16:47:36;15.00;99.90
29731;DHT22;16639;51.488;0.152;2022-10-16T16:50:05;14.90;99.90
29731;DHT22;16639;51.488;0.152;2022-10-16T16:52:34;14.90;99.90
29731;DHT22;16639;51.488;0.152;2022-10-16T16:55:01;14.90;99.90
29731;DHT22;16639;51.488;0.152;2022-10-16T16:57:29;14.90;99.90
29731;DHT22;16639;51.488;0.152;2022-10-16T16:59:56;14.90;99.90
29731;DHT22;16639;51.488;0.152;2022-10-16T17:02:23;14.90;99.90
29731;DHT22;16639;51.488;0.152;2022-10-16T17:04:50;14.90;99.90
29731;DHT22;16639;51.488;0.152;2022-10-16T17:07:17;14.80;99.90
29731;DHT22;16639;51.488;0.152;2022-10-16T17:09:50;14.80;99.90
29731;DHT22;16639;51.488;0.152;2022-10-16T17:12:17;14.80;99.90
29731;DHT22;16639;51.488;0.152;2022-10-16T17:14:44;14.80;99.90
29731;DHT22;16639;51.488;0.152;2022-10-16T17:17:11;14.80;99.90
29731;DHT22;16639;51.488;0.152;2022-10-16T17:19:38;14.80;99.90
29731;DHT22;16639;51.488;0.152;2022-10-16T17:22:05;14.70;99.90
29731;DHT22;16639;51.488;0.152;2022-10-16T17:24:32;14.70;99.90
29731;DHT22;16639;51.488;0.152;2022-10-16T17:26:59;14.80;99.90
29731;DHT22;16639;51.488;0.152;2022-10-16T17:29:26;14.70;99.90
29731;DHT22;16639;51.488;0.152;2022-10-16T17:31:54;14.80;99.90
29731;DHT22;16639;51.488;0.152;2022-10-16T17:34:22;14.20;99.90
29731;DHT22;16639;51.488;0.152;2022-10-16T17:36:49;14.70;99.90
29731;DHT22;16639;51.488;0.152;2022-10-16T17:39:16;14.80;99.90
29731;DHT22;16639;51.488;0.152;2022-10-16T17:41:44;14.70;99.90